sensor_id;sensor_type;location;lat;lon;timestamp;temperature;humidity
2783;DHT22;1399;47.072;15.452;2022-07-29T05:40:35;21.70;74.90
2783;DHT22;1399;47.072;15.452;2022-07-29T05:43:01;21.80;74.80
2783;DHT22;1399;47.072;15.452;2022-07-29T05:45:27;21.90;74.60
2783;DHT22;1399;47.072;15.452;2022-07-29T05:47:52;21.90;74.30
2783;DHT22;1399;47.072;15.452;2022-07-29T05:50:18;22.00;74.10
2783;DHT22;1399;47.072;15.452;2022-07-29T05:52:44;22.00;73.80
2783;DHT22;1399;47.072;15.452;2022-07-29T05:55:09;22.10;73.50
2783;DHT22;1399;47.072;15.452;2022-07-29T05:57:35;22.20;73.30
2783;DHT22;1399;47.072;15.452;2022-07-29T06:00:01;22.20;73.10
2783;DHT22;1399;47.072;15.452;2022-07-29T06:02:27;22.30;72.80
2783;DHT22;1399;47.072;15.452;2022-07-29T06:04:53;22.50;72.50
2783;DHT22;1399;47.072;15.452;2022-07-29T06:07:19;22.90;71.70
2783;DHT22;1399;47.072;15.452;2022-07-29T06:09:44;23.80;69.80
2783;DHT22;1399;47.072;15.452;2022-07-29T06:12:10;25.00;66.40
2783;DHT22;1399;47.072;15.452;2022-07-29T06:14:36;26.30;61.90
2783;DHT22;1399;47.072;15.452;2022-07-29T06:17:04;27.40;58.10
2783;DHT22;1399;47.072;15.452;2022-07-29T06:19:29;28.20;55.60
2783;DHT22;1399;47.072;15.452;2022-07-29T06:21:55;29.00;53.50
2783;DHT22;1399;47.072;15.452;2022-07-29T06:24:21;29.60;51.80
2783;DHT22;1399;47.072;15.452;2022-07-29T06:26:46;30.20;50.30
2783;DHT22;1399;47.072;15.452;2022-07-29T06:29:12;30.60;49.10
2783;DHT22;1399;47.072;15.452;2022-07-29T06:31:38;31.00;48.30
2783;DHT22;1399;47.072;15.452;2022-07-29T06:34:04;31.30;47.30
2783;DHT22;1399;47.072;15.452;2022-07-29T06:36:30;31.70;46.60
2783;DHT22;1399;47.072;15.452;2022-07-29T06:38:55;32.00;45.90
2783;DHT22;1399;47.072;15.452;2022-07-29T06:41:21;32.40;45.30
2783;DHT22;1399;47.072;15.452;2022-07-29T06:43:48;32.60;44.60
2783;DHT22;1399;47.072;15.452;2022-07-29T06:46:17;32.80;44.10
2783;DHT22;1399;47.072;15.452;2022-07-29T06:48:44;32.90;43.60
2783;DHT22;1399;47.072;15.452;2022-07-29T06:51:10;33.10;43.40
2783;DHT22;1399;47.072;15.452;2022-07-29T06:53:37;33.20;43.20
2783;DHT22;1399;47.072;15.452;2022-07-29T06:56:04;33.10;43.10
2783;DHT22;1399;47.072;15.452;2022-07-29T06:58:31;33.00;43.20
2783;DHT22;1399;47.072;15.452;2022-07-29T07:01:02;32.80;43.60
2783;DHT22;1399;47.072;15.452;2022-07-29T07:03:28;32.40;44.00
2783;DHT22;1399;47.072;15.452;2022-07-29T07:05:54;32.00;44.80
2783;DHT22;1399;47.072;15.452;2022-07-29T07:08:21;31.50;45.60
2783;DHT22;1399;47.072;15.452;2022-07-29T07:10:47;31.20;46.40
2783;DHT22;1399;47.072;15.452;2022-07-29T07:13:13;30.80;47.20
2783;DHT22;1399;47.072;15.452;2022-07-29T07:15:40;30.60;48.00
2783;DHT22;1399;47.072;15.452;2022-07-29T07:18:06;30.30;48.70
2783;DHT22;1399;47.072;15.452;2022-07-29T07:20:33;30.00;49.50
2783;DHT22;1399;47.072;15.452;2022-07-29T07:22:59;29.70;50.30
2783;DHT22;1399;47.072;15.452;2022-07-29T07:25:25;29.50;50.90
2783;DHT22;1399;47.072;15.452;2022-07-29T07:27:51;29.30;51.50
2783;DHT22;1399;47.072;15.452;2022-07-29T07:30:17;29.10;52.00
2783;DHT22;1399;47.072;15.452;2022-07-29T07:32:42;28.90;52.40
2783;DHT22;1399;47.072;15.452;2022-07-29T07:35:09;28.80;52.80
2783;DHT22;1399;47.072;15.452;2022-07-29T07:37:35;28.60;53.30
2783;DHT22;1399;47.072;15.452;2022-07-29T07:40:01;28.50;53.90
2783;DHT22;1399;47.072;15.452;2022-07-29T07:42:27;28.30;54.40
2783;DHT22;1399;47.072;15.452;2022-07-29T07:44:53;28.10;54.80
2783;DHT22;1399;47.072;15.452;2022-07-29T07:47:19;28.00;55.10
2783;DHT22;1399;47.072;15.452;2022-07-29T07:49:49;27.90;55.60
2783;DHT22;1399;47.072;15.452;2022-07-29T07:52:16;27.70;55.80
2783;DHT22;1399;47.072;15.452;2022-07-29T07:54:42;27.60;56.30
2783;DHT22;1399;47.072;15.452;2022-07-29T07:57:09;27.50;56.60
2783;DHT22;1399;47.072;15.452;2022-07-29T07:59:35;27.50;56.90
2783;DHT22;1399;47.072;15.452;2022-07-29T08:02:01;27.40;57.10
2783;DHT22;1399;47.072;15.452;2022-07-29T08:04:26;27.30;57.30
2783;DHT22;1399;47.072;15.452;2022-07-29T08:06:53;27.20;57.50
2783;DHT22;1399;47.072;15.452;2022-07-29T08:09:20;27.20;57.60
2783;DHT22;1399;47.072;15.452;2022-07-29T08:11:46;27.20;57.80
2783;DHT22;1399;47.072;15.452;2022-07-29T08:14:12;27.10;57.90
2783;DHT22;1399;47.072;15.452;2022-07-29T08:16:39;27.10;58.00
2783;DHT22;1399;47.072;15.452;2022-07-29T08:19:06;27.10;58.10
2783;DHT22;1399;47.072;15.452;2022-07-29T08:21:32;27.00;58.10
2783;DHT22;1399;47.072;15.452;2022-07-29T08:23:57;27.00;58.20
2783;DHT22;1399;47.072;15.452;2022-07-29T08:26:42;27.00;58.20
2783;DHT22;1399;47.072;15.452;2022-07-29T08:29:09;27.00;58.20
2783;DHT22;1399;47.072;15.452;2022-07-29T08:31:36;27.00;58.20
2783;DHT22;1399;47.072;15.452;2022-07-29T08:34:02;27.10;58.20
2783;DHT22;1399;47.072;15.452;2022-07-29T08:36:29;27.10;58.20
2783;DHT22;1399;47.072;15.452;2022-07-29T08:38:54;27.10;58.20
2783;DHT22;1399;47.072;15.452;2022-07-29T08:41:20;27.00;58.20
2783;DHT22;1399;47.072;15.452;2022-07-29T08:43:47;27.00;58.30
2783;DHT22;1399;47.072;15.452;2022-07-29T08:46:13;26.90;58.30
2783;DHT22;1399;47.072;15.452;2022-07-29T08:48:41;26.90;58.40
2783;DHT22;1399;47.072;15.452;2022-07-29T08:51:07;26.90;58.40
2783;DHT22;1399;47.072;15.452;2022-07-29T08:53:34;26.90;58.40
2783;DHT22;1399;47.072;15.452;2022-07-29T08:56:00;26.90;58.40
2783;DHT22;1399;47.072;15.452;2022-07-29T08:58:32;26.90;58.40
2783;DHT22;1399;47.072;15.452;2022-07-29T09:01:01;27.00;58.40
2783;DHT22;1399;47.072;15.452;2022-07-29T09:03:31;27.00;58.20
2783;DHT22;1399;47.072;15.452;2022-07-29T09:06:01;27.10;58.10
2783;DHT22;1399;47.072;15.452;2022-07-29T09:08:28;27.10;58.10
2783;DHT22;1399;47.072;15.452;2022-07-29T09:10:54;27.10;58.00
2783;DHT22;1399;47.072;15.452;2022-07-29T09:13:22;27.10;58.00
2783;DHT22;1399;47.072;15.452;2022-07-29T09:15:48;27.20;58.00
2783;DHT22;1399;47.072;15.452;2022-07-29T09:18:35;27.10;57.90
2783;DHT22;1399;47.072;15.452;2022-07-29T09:21:01;27.20;57.90
2783;DHT22;1399;47.072;15.452;2022-07-29T09:24:09;27.10;57.80
2783;DHT22;1399;47.072;15.452;2022-07-29T09:26:43;27.10;57.90
2783;DHT22;1399;47.072;15.452;2022-07-29T09:29:13;27.10;58.00
2783;DHT22;1399;47.072;15.452;2022-07-29T09:31:45;27.10;58.00
2783;DHT22;1399;47.072;15.452;2022-07-29T09:34:13;27.10;58.10
2783;DHT22;1399;47.072;15.452;2022-07-29T09:36:47;27.10;58.10
2783;DHT22;1399;47.072;15.452;2022-07-29T09:39:14;27.10;58.10
2783;DHT22;1399;47.072;15.452;2022-07-29T09:41:45;27.10;58.10
2783;DHT22;1399;47.072;15.452;2022-07-29T09:44:11;27.10;58.10
2783;DHT22;1399;47.072;15.452;2022-07-29T09:46:37;27.10;58.00
2783;DHT22;1399;47.072;15.452;2022-07-29T09:49:10;27.10;58.00
2783;DHT22;1399;47.072;15.452;2022-07-29T09:51:37;27.20;57.90
2783;DHT22;1399;47.072;15.452;2022-07-29T09:54:24;27.20;57.80
2783;DHT22;1399;47.072;15.452;2022-07-29T09:56:51;27.20;57.50
2783;DHT22;1399;47.072;15.452;2022-07-29T09:59:17;27.30;57.40
2783;DHT22;1399;47.072;15.452;2022-07-29T10:01:43;27.30;57.30
2783;DHT22;1399;47.072;15.452;2022-07-29T10:04:09;27.40;57.10
2783;DHT22;1399;47.072;15.452;2022-07-29T10:06:35;27.40;57.00
2783;DHT22;1399;47.072;15.452;2022-07-29T10:09:09;27.40;56.80
2783;DHT22;1399;47.072;15.452;2022-07-29T10:11:35;27.50;56.80
2783;DHT22;1399;47.072;15.452;2022-07-29T10:14:02;27.50;56.60
2783;DHT22;1399;47.072;15.452;2022-07-29T10:16:29;27.60;56.60
2783;DHT22;1399;47.072;15.452;2022-07-29T10:18:58;27.60;56.50
2783;DHT22;1399;47.072;15.452;2022-07-29T10:21:28;27.60;56.40
2783;DHT22;1399;47.072;15.452;2022-07-29T10:23:55;27.60;56.40
2783;DHT22;1399;47.072;15.452;2022-07-29T10:26:22;27.60;56.40
2783;DHT22;1399;47.072;15.452;2022-07-29T10:28:48;27.50;56.40
2783;DHT22;1399;47.072;15.452;2022-07-29T10:31:22;27.50;56.50
2783;DHT22;1399;47.072;15.452;2022-07-29T10:36:57;27.30;56.70
2783;DHT22;1399;47.072;15.452;2022-07-29T10:39:40;27.20;56.80
2783;DHT22;1399;47.072;15.452;2022-07-29T10:42:22;27.20;56.90
2783;DHT22;1399;47.072;15.452;2022-07-29T10:44:52;27.10;57.00
2783;DHT22;1399;47.072;15.452;2022-07-29T10:47:25;27.10;57.20
2783;DHT22;1399;47.072;15.452;2022-07-29T10:50:04;27.00;57.20
2783;DHT22;1399;47.072;15.452;2022-07-29T10:52:56;27.00;57.30
2783;DHT22;1399;47.072;15.452;2022-07-29T10:58:34;27.00;57.20
2783;DHT22;1399;47.072;15.452;2022-07-29T11:01:29;27.00;57.30
2783;DHT22;1399;47.072;15.452;2022-07-29T11:03:55;27.00;57.30
2783;DHT22;1399;47.072;15.452;2022-07-29T11:06:21;27.00;57.30
2783;DHT22;1399;47.072;15.452;2022-07-29T11:09:17;27.10;57.20
2783;DHT22;1399;47.072;15.452;2022-07-29T11:11:46;27.20;57.10
2783;DHT22;1399;47.072;15.452;2022-07-29T11:14:12;27.30;56.90
2783;DHT22;1399;47.072;15.452;2022-07-29T11:19:25;27.40;56.50
2783;DHT22;1399;47.072;15.452;2022-07-29T11:21:51;27.50;56.40
2783;DHT22;1399;47.072;15.452;2022-07-29T11:24:20;27.60;56.20
2783;DHT22;1399;47.072;15.452;2022-07-29T11:27:12;27.60;56.10
2783;DHT22;1399;47.072;15.452;2022-07-29T11:29:40;27.60;56.00
2783;DHT22;1399;47.072;15.452;2022-07-29T11:32:13;27.70;55.90
2783;DHT22;1399;47.072;15.452;2022-07-29T11:34:45;27.70;55.70
2783;DHT22;1399;47.072;15.452;2022-07-29T11:39:46;27.70;55.60
2783;DHT22;1399;47.072;15.452;2022-07-29T11:47:36;27.80;55.60
2783;DHT22;1399;47.072;15.452;2022-07-29T11:50:04;27.70;55.50
2783;DHT22;1399;47.072;15.452;2022-07-29T11:52:50;27.70;55.50
2783;DHT22;1399;47.072;15.452;2022-07-29T11:55:17;27.70;55.50
2783;DHT22;1399;47.072;15.452;2022-07-29T11:57:54;27.70;55.60
2783;DHT22;1399;47.072;15.452;2022-07-29T12:00:30;27.70;55.70
2783;DHT22;1399;47.072;15.452;2022-07-29T12:02:57;27.60;55.70
2783;DHT22;1399;47.072;15.452;2022-07-29T12:05:38;27.60;55.70
2783;DHT22;1399;47.072;15.452;2022-07-29T12:08:15;27.60;55.70
2783;DHT22;1399;47.072;15.452;2022-07-29T12:10:44;27.60;55.60
2783;DHT22;1399;47.072;15.452;2022-07-29T12:13:12;27.60;55.60
2783;DHT22;1399;47.072;15.452;2022-07-29T12:15:38;27.60;55.60
2783;DHT22;1399;47.072;15.452;2022-07-29T12:18:13;27.60;55.60
2783;DHT22;1399;47.072;15.452;2022-07-29T12:20:39;27.60;55.70
2783;DHT22;1399;47.072;15.452;2022-07-29T12:23:07;27.60;55.80
2783;DHT22;1399;47.072;15.452;2022-07-29T12:25:35;27.50;55.70
2783;DHT22;1399;47.072;15.452;2022-07-29T12:28:05;27.50;55.80
2783;DHT22;1399;47.072;15.452;2022-07-29T12:30:44;27.40;55.80
2783;DHT22;1399;47.072;15.452;2022-07-29T12:33:13;27.40;55.80
2783;DHT22;1399;47.072;15.452;2022-07-29T12:35:40;27.40;55.90
2783;DHT22;1399;47.072;15.452;2022-07-29T12:38:08;27.30;55.90
2783;DHT22;1399;47.072;15.452;2022-07-29T12:40:34;27.30;56.00
2783;DHT22;1399;47.072;15.452;2022-07-29T12:43:12;27.30;56.00
2783;DHT22;1399;47.072;15.452;2022-07-29T12:45:40;27.30;56.10
2783;DHT22;1399;47.072;15.452;2022-07-29T12:48:07;27.30;56.20
2783;DHT22;1399;47.072;15.452;2022-07-29T12:50:51;27.30;56.20
2783;DHT22;1399;47.072;15.452;2022-07-29T12:53:17;27.20;56.10
2783;DHT22;1399;47.072;15.452;2022-07-29T12:55:48;27.30;56.20
2783;DHT22;1399;47.072;15.452;2022-07-29T12:58:38;27.30;56.10
2783;DHT22;1399;47.072;15.452;2022-07-29T13:01:12;27.40;56.10
2783;DHT22;1399;47.072;15.452;2022-07-29T13:03:55;27.40;55.80
2783;DHT22;1399;47.072;15.452;2022-07-29T13:06:41;27.40;55.60
2783;DHT22;1399;47.072;15.452;2022-07-29T13:09:11;27.50;55.50
2783;DHT22;1399;47.072;15.452;2022-07-29T13:11:41;27.50;55.40
2783;DHT22;1399;47.072;15.452;2022-07-29T13:14:09;27.50;55.40
2783;DHT22;1399;47.072;15.452;2022-07-29T13:16:36;27.50;55.40
2783;DHT22;1399;47.072;15.452;2022-07-29T13:19:10;27.50;55.40
2783;DHT22;1399;47.072;15.452;2022-07-29T13:21:37;27.40;55.40
2783;DHT22;1399;47.072;15.452;2022-07-29T13:24:07;27.40;55.40
2783;DHT22;1399;47.072;15.452;2022-07-29T13:26:33;27.40;55.50
2783;DHT22;1399;47.072;15.452;2022-07-29T13:28:59;27.40;55.60
2783;DHT22;1399;47.072;15.452;2022-07-29T13:31:24;27.30;55.60
2783;DHT22;1399;47.072;15.452;2022-07-29T13:33:50;27.30;55.70
2783;DHT22;1399;47.072;15.452;2022-07-29T13:36:16;27.30;55.70
2783;DHT22;1399;47.072;15.452;2022-07-29T13:38:42;27.30;55.60
2783;DHT22;1399;47.072;15.452;2022-07-29T13:41:07;27.40;55.60
2783;DHT22;1399;47.072;15.452;2022-07-29T13:43:33;27.40;55.50
2783;DHT22;1399;47.072;15.452;2022-07-29T13:45:59;27.50;55.50
2783;DHT22;1399;47.072;15.452;2022-07-29T13:48:25;27.40;55.40
2783;DHT22;1399;47.072;15.452;2022-07-29T13:50:51;27.50;55.40
2783;DHT22;1399;47.072;15.452;2022-07-29T13:53:17;27.50;55.50
2783;DHT22;1399;47.072;15.452;2022-07-29T13:55:42;27.50;55.50
2783;DHT22;1399;47.072;15.452;2022-07-29T13:58:08;27.50;55.50
2783;DHT22;1399;47.072;15.452;2022-07-29T14:00:34;27.50;55.50
2783;DHT22;1399;47.072;15.452;2022-07-29T14:02:59;27.40;55.40
2783;DHT22;1399;47.072;15.452;2022-07-29T14:05:25;27.40;55.50
2783;DHT22;1399;47.072;15.452;2022-07-29T14:07:51;27.40;55.50
2783;DHT22;1399;47.072;15.452;2022-07-29T14:10:16;27.40;55.50
2783;DHT22;1399;47.072;15.452;2022-07-29T14:12:42;27.40;55.50
2783;DHT22;1399;47.072;15.452;2022-07-29T14:15:08;27.40;55.60
2783;DHT22;1399;47.072;15.452;2022-07-29T14:17:34;27.40;55.60
2783;DHT22;1399;47.072;15.452;2022-07-29T14:20:00;27.40;55.50
2783;DHT22;1399;47.072;15.452;2022-07-29T14:22:25;27.40;55.40
2783;DHT22;1399;47.072;15.452;2022-07-29T14:24:51;27.40;55.30
2783;DHT22;1399;47.072;15.452;2022-07-29T14:27:17;27.50;55.30
2783;DHT22;1399;47.072;15.452;2022-07-29T14:29:43;27.50;55.30
2783;DHT22;1399;47.072;15.452;2022-07-29T14:32:09;27.50;55.20
2783;DHT22;1399;47.072;15.452;2022-07-29T14:34:36;27.60;55.10
2783;DHT22;1399;47.072;15.452;2022-07-29T14:37:02;27.60;55.10
2783;DHT22;1399;47.072;15.452;2022-07-29T14:39:31;27.60;55.10
2783;DHT22;1399;47.072;15.452;2022-07-29T14:41:56;27.50;55.00
2783;DHT22;1399;47.072;15.452;2022-07-29T14:44:22;27.50;54.80
2783;DHT22;1399;47.072;15.452;2022-07-29T14:46:49;27.50;54.70
2783;DHT22;1399;47.072;15.452;2022-07-29T14:49:15;27.50;54.70
2783;DHT22;1399;47.072;15.452;2022-07-29T14:51:40;27.50;54.70
2783;DHT22;1399;47.072;15.452;2022-07-29T14:54:06;27.50;54.70
2783;DHT22;1399;47.072;15.452;2022-07-29T14:56:33;27.50;54.70
2783;DHT22;1399;47.072;15.452;2022-07-29T14:58:58;27.50;54.70
2783;DHT22;1399;47.072;15.452;2022-07-29T15:01:25;27.50;54.60
2783;DHT22;1399;47.072;15.452;2022-07-29T15:03:51;27.40;54.40
2783;DHT22;1399;47.072;15.452;2022-07-29T15:06:17;27.40;54.40
2783;DHT22;1399;47.072;15.452;2022-07-29T15:08:42;27.40;54.40
2783;DHT22;1399;47.072;15.452;2022-07-29T15:11:08;27.40;54.20
2783;DHT22;1399;47.072;15.452;2022-07-29T15:13:34;27.40;54.10
2783;DHT22;1399;47.072;15.452;2022-07-29T15:16:00;27.40;53.90
2783;DHT22;1399;47.072;15.452;2022-07-29T15:18:25;27.40;53.70
2783;DHT22;1399;47.072;15.452;2022-07-29T15:20:51;27.40;54.20
2783;DHT22;1399;47.072;15.452;2022-07-29T15:23:17;27.40;53.40
2783;DHT22;1399;47.072;15.452;2022-07-29T15:25:44;27.40;53.20
2783;DHT22;1399;47.072;15.452;2022-07-29T15:28:09;27.40;53.00
2783;DHT22;1399;47.072;15.452;2022-07-29T15:30:35;27.40;52.90
2783;DHT22;1399;47.072;15.452;2022-07-29T15:33:07;27.40;52.80
2783;DHT22;1399;47.072;15.452;2022-07-29T15:35:34;27.30;52.70
2783;DHT22;1399;47.072;15.452;2022-07-29T15:38:00;27.30;52.50
2783;DHT22;1399;47.072;15.452;2022-07-29T15:40:26;27.30;52.30
2783;DHT22;1399;47.072;15.452;2022-07-29T15:42:52;27.30;52.20
2783;DHT22;1399;47.072;15.452;2022-07-29T15:45:18;27.30;52.10
2783;DHT22;1399;47.072;15.452;2022-07-29T15:47:43;27.30;52.10
2783;DHT22;1399;47.072;15.452;2022-07-29T15:50:09;27.30;52.00
2783;DHT22;1399;47.072;15.452;2022-07-29T15:52:40;27.30;51.90
2783;DHT22;1399;47.072;15.452;2022-07-29T15:55:06;27.30;51.80
2783;DHT22;1399;47.072;15.452;2022-07-29T15:57:32;27.30;51.70
2783;DHT22;1399;47.072;15.452;2022-07-29T15:59:58;27.30;51.70
2783;DHT22;1399;47.072;15.452;2022-07-29T16:02:24;27.30;51.70
2783;DHT22;1399;47.072;15.452;2022-07-29T16:04:50;27.20;51.60
2783;DHT22;1399;47.072;15.452;2022-07-29T16:07:16;27.20;51.50
2783;DHT22;1399;47.072;15.452;2022-07-29T16:09:42;27.10;51.50
2783;DHT22;1399;47.072;15.452;2022-07-29T16:12:09;27.10;51.50
2783;DHT22;1399;47.072;15.452;2022-07-29T16:14:34;27.10;51.50
2783;DHT22;1399;47.072;15.452;2022-07-29T16:17:00;27.00;51.50
2783;DHT22;1399;47.072;15.452;2022-07-29T16:19:28;26.90;51.60
2783;DHT22;1399;47.072;15.452;2022-07-29T16:21:55;26.90;51.70
2783;DHT22;1399;47.072;15.452;2022-07-29T16:24:20;26.90;51.90
2783;DHT22;1399;47.072;15.452;2022-07-29T16:26:46;26.90;52.00
2783;DHT22;1399;47.072;15.452;2022-07-29T16:29:12;26.80;52.00
2783;DHT22;1399;47.072;15.452;2022-07-29T16:31:38;26.80;52.10
2783;DHT22;1399;47.072;15.452;2022-07-29T16:34:03;26.80;52.30
2783;DHT22;1399;47.072;15.452;2022-07-29T16:36:29;26.70;52.30
2783;DHT22;1399;47.072;15.452;2022-07-29T16:38:55;26.70;52.30
2783;DHT22;1399;47.072;15.452;2022-07-29T16:41:21;26.70;52.30
2783;DHT22;1399;47.072;15.452;2022-07-29T16:43:46;26.70;52.30
2783;DHT22;1399;47.072;15.452;2022-07-29T16:46:12;26.70;52.40
2783;DHT22;1399;47.072;15.452;2022-07-29T16:48:38;26.70;52.40
2783;DHT22;1399;47.072;15.452;2022-07-29T16:51:05;26.60;52.40
2783;DHT22;1399;47.072;15.452;2022-07-29T16:53:31;26.60;52.40
2783;DHT22;1399;47.072;15.452;2022-07-29T16:55:56;26.60;52.40
